createdAt,value
2019-03-05T00:00:08.430Z,3.40
2019-03-05T00:01:08.334Z,3.10
2019-03-05T00:02:08.331Z,4.40
2019-03-05T00:03:08.323Z,4.60
2019-03-05T00:04:08.307Z,3.50
2019-03-05T00:05:08.304Z,3.70
2019-03-05T00:06:08.296Z,4.20
2019-03-05T00:07:08.261Z,3.40
2019-03-05T00:08:08.244Z,3.90
2019-03-05T00:09:08.240Z,4.10
2019-03-05T00:10:08.234Z,3.20
2019-03-05T00:11:08.330Z,4.30
2019-03-05T00:12:08.231Z,3.80
2019-03-05T00:13:08.202Z,4.30
2019-03-05T00:14:08.186Z,3.80
2019-03-05T00:15:08.180Z,4.20
2019-03-05T00:16:08.180Z,3.00
2019-03-05T00:17:08.165Z,4.40
2019-03-05T00:18:08.143Z,2.90
2019-03-05T00:19:08.135Z,3.70
2019-03-05T00:20:08.122Z,4.60
2019-03-05T00:21:08.162Z,4.30
2019-03-05T00:22:08.117Z,4.40
2019-03-05T00:23:08.520Z,4.20
2019-03-05T00:24:08.108Z,4.40
2019-03-05T00:25:08.068Z,3.10
2019-03-05T00:26:08.067Z,2.70
2019-03-05T00:27:08.080Z,3.30
2019-03-05T00:28:08.040Z,4.40
2019-03-05T00:29:08.091Z,4.50
2019-03-05T00:30:08.007Z,4.20
2019-03-05T00:31:07.997Z,4.10
2019-03-05T00:32:08.015Z,4.30
2019-03-05T00:33:07.978Z,4.40
2019-03-05T00:34:07.979Z,3.90
2019-03-05T00:35:07.962Z,4.60
2019-03-05T00:36:07.951Z,4.40
2019-03-05T00:37:07.981Z,3.00
2019-03-05T00:38:07.939Z,3.20
2019-03-05T00:39:07.923Z,4.40
2019-03-05T00:40:07.900Z,4.10
2019-03-05T00:41:07.908Z,4.40
2019-03-05T00:42:16.167Z,5.00
2019-03-05T00:43:07.880Z,4.10
2019-03-05T00:44:07.870Z,5.60
2019-03-05T00:45:07.864Z,4.10
2019-03-05T00:46:07.839Z,5.50
2019-03-05T00:47:07.830Z,5.00
2019-03-05T00:48:07.853Z,4.10
2019-03-05T00:49:07.823Z,4.00
2019-03-05T00:50:07.791Z,4.50
2019-03-05T00:51:07.809Z,5.40
2019-03-05T00:52:07.772Z,5.20
2019-03-05T00:53:07.782Z,5.60
2019-03-05T00:54:07.752Z,5.90
2019-03-05T00:55:07.747Z,3.80
2019-03-05T00:56:07.734Z,4.90
2019-03-05T00:57:07.767Z,6.20
2019-03-05T00:58:07.750Z,5.60
2019-03-05T00:59:07.698Z,4.60
2019-03-05T01:00:07.696Z,6.00
2019-03-05T01:01:07.679Z,4.20
2019-03-05T01:02:07.672Z,6.10
2019-03-05T01:03:07.686Z,5.70
2019-03-05T01:04:07.642Z,5.80
2019-03-05T01:05:07.642Z,5.80
2019-03-05T01:06:07.628Z,6.30
2019-03-05T01:07:07.606Z,4.70
2019-03-05T01:08:07.682Z,6.40
2019-03-05T01:09:07.643Z,4.70
2019-03-05T01:10:07.580Z,4.40
2019-03-05T01:11:07.573Z,5.60
2019-03-05T01:12:07.573Z,5.80
2019-03-05T01:13:07.545Z,4.30
2019-03-05T01:14:07.887Z,6.10
2019-03-05T01:15:07.524Z,6.30
2019-03-05T01:16:07.513Z,5.10
2019-03-05T01:17:07.506Z,4.80
2019-03-05T01:18:07.494Z,5.40
2019-03-05T01:19:07.500Z,6.20
2019-03-05T01:20:07.466Z,5.60
2019-03-05T01:21:07.454Z,5.60
2019-03-05T01:22:07.455Z,5.40
2019-03-05T01:23:07.458Z,4.70
2019-03-05T01:24:07.468Z,4.70
2019-03-05T01:25:07.421Z,6.10
2019-03-05T01:26:07.402Z,5.30
2019-03-05T01:27:07.392Z,5.90
2019-03-05T01:28:07.384Z,5.40
2019-03-05T01:29:07.400Z,5.10
2019-03-05T01:30:07.366Z,5.80
2019-03-05T01:31:07.356Z,5.50
2019-03-05T01:32:07.340Z,5.20
2019-03-05T01:33:07.326Z,4.00
2019-03-05T01:34:07.325Z,4.60
2019-03-05T01:35:07.331Z,5.60
2019-03-05T01:36:07.303Z,4.70
2019-03-05T01:37:07.284Z,4.50
2019-03-05T01:38:07.276Z,4.10
2019-03-05T01:39:07.262Z,5.10
2019-03-05T01:40:07.272Z,5.10
2019-03-05T01:41:07.254Z,5.20
2019-03-05T01:42:07.270Z,4.90
2019-03-05T01:43:07.213Z,5.20
2019-03-05T01:44:07.208Z,5.50
2019-03-05T01:45:07.222Z,5.40
2019-03-05T01:46:07.200Z,4.20
2019-03-05T01:47:07.181Z,5.40
2019-03-05T01:48:07.214Z,4.40
2019-03-05T01:49:07.153Z,5.30
2019-03-05T01:50:15.463Z,4.50
2019-03-05T01:51:15.924Z,4.20
2019-03-05T01:52:15.948Z,4.90
2019-03-05T01:53:15.989Z,4.20
2019-03-05T01:54:16.020Z,4.30
2019-03-05T01:55:15.397Z,3.70
2019-03-05T01:56:16.071Z,3.80
2019-03-05T01:57:15.382Z,4.50
2019-03-05T01:58:07.076Z,3.00
2019-03-05T01:59:07.052Z,3.80
2019-03-05T02:00:07.074Z,4.30
2019-03-05T02:01:07.024Z,4.10
2019-03-05T02:02:07.011Z,3.30
2019-03-05T02:03:07.008Z,3.30
2019-03-05T02:04:06.998Z,4.00
2019-03-05T02:05:06.996Z,4.20
2019-03-05T02:06:06.996Z,4.30
2019-03-05T02:07:06.964Z,4.30
2019-03-05T02:08:06.953Z,3.60
2019-03-05T02:09:06.933Z,4.20
2019-03-05T02:10:06.936Z,4.00
2019-03-05T02:11:06.963Z,2.40
2019-03-05T02:12:06.906Z,3.60
2019-03-05T02:13:06.897Z,2.80
2019-03-05T02:14:06.891Z,2.40
2019-03-05T02:15:06.885Z,3.40
2019-03-05T02:16:06.886Z,3.80
2019-03-05T02:17:06.851Z,3.60
2019-03-05T02:18:06.895Z,3.80
2019-03-05T02:19:06.823Z,3.00
2019-03-05T02:20:06.823Z,3.40
2019-03-05T02:21:06.849Z,3.90
2019-03-05T02:22:06.811Z,3.60
2019-03-05T02:23:06.789Z,3.60
2019-03-05T02:24:06.771Z,3.30
2019-03-05T02:25:06.767Z,3.40
2019-03-05T02:26:06.789Z,3.10
2019-03-05T02:27:06.751Z,2.20
2019-03-05T02:28:06.748Z,3.40
2019-03-05T02:29:06.756Z,3.80
2019-03-05T02:30:06.710Z,3.70
2019-03-05T02:31:06.713Z,3.60
2019-03-05T02:32:06.717Z,3.50
2019-03-05T02:33:06.679Z,4.00
2019-03-05T02:34:06.668Z,3.10
2019-03-05T02:35:06.671Z,3.80
2019-03-05T02:36:06.647Z,2.70
2019-03-05T02:37:06.683Z,3.80
2019-03-05T02:38:06.621Z,3.40
2019-03-05T02:39:06.627Z,4.00
2019-03-05T02:40:06.599Z,3.40
2019-03-05T02:41:06.592Z,3.60
2019-03-05T02:42:06.704Z,3.40
2019-03-05T02:43:06.591Z,3.30
2019-03-05T02:44:06.566Z,2.80
2019-03-05T02:45:06.578Z,3.60
2019-03-05T02:46:06.540Z,3.20
2019-03-05T02:47:06.571Z,4.10
2019-03-05T02:48:06.518Z,4.20
2019-03-05T02:49:06.500Z,3.10
2019-03-05T02:50:06.505Z,3.60
2019-03-05T02:51:06.596Z,3.70
2019-03-05T02:52:06.504Z,3.80
2019-03-05T02:53:06.461Z,4.20
2019-03-05T02:54:06.452Z,4.20
2019-03-05T02:55:06.441Z,4.10
2019-03-05T02:56:06.441Z,3.30
2019-03-05T02:57:06.414Z,3.50
2019-03-05T02:58:06.422Z,3.30
2019-03-05T02:59:06.402Z,3.30
2019-03-05T03:00:06.397Z,3.80
2019-03-05T03:01:06.374Z,3.80
2019-03-05T03:02:06.374Z,3.90
2019-03-05T03:03:06.400Z,3.30
2019-03-05T03:04:06.342Z,3.80
2019-03-05T03:05:06.334Z,3.20
2019-03-05T03:06:06.353Z,2.30
2019-03-05T03:07:06.312Z,4.30
2019-03-05T03:08:06.331Z,4.10
2019-03-05T03:09:06.323Z,3.80
2019-03-05T03:10:06.280Z,3.30
2019-03-05T03:11:06.273Z,3.90
2019-03-05T03:12:06.266Z,3.90
2019-03-05T03:13:06.266Z,3.40
2019-03-05T03:14:06.254Z,3.60
2019-03-05T03:15:06.230Z,3.70
2019-03-05T03:16:06.229Z,3.70
2019-03-05T03:17:06.208Z,2.10
2019-03-05T03:18:06.226Z,3.40
2019-03-05T03:19:06.191Z,4.10
2019-03-05T03:20:06.192Z,3.00
2019-03-05T03:21:06.165Z,3.80
2019-03-05T03:22:06.158Z,3.80
2019-03-05T03:23:06.148Z,3.70
2019-03-05T03:24:06.172Z,3.60
2019-03-05T03:25:06.149Z,3.50
2019-03-05T03:26:06.156Z,3.90
2019-03-05T03:27:06.093Z,3.80
2019-03-05T03:28:06.095Z,3.40
2019-03-05T03:29:06.104Z,2.40
2019-03-05T03:30:06.101Z,3.60
2019-03-05T03:31:06.273Z,3.10
2019-03-05T03:32:06.049Z,3.50
2019-03-05T03:33:06.037Z,3.00
2019-03-05T03:34:06.071Z,3.50
2019-03-05T03:35:06.004Z,3.50
2019-03-05T03:36:06.005Z,3.30
2019-03-05T03:37:06.003Z,3.60
2019-03-05T03:38:06.015Z,2.90
2019-03-05T03:39:05.980Z,3.50
2019-03-05T03:40:06.277Z,3.40
2019-03-05T03:41:05.953Z,3.60
2019-03-05T03:42:05.936Z,3.50
2019-03-05T03:43:05.945Z,3.10
2019-03-05T03:44:05.938Z,3.40
2019-03-05T03:45:05.904Z,3.60
2019-03-05T03:46:05.887Z,3.30
2019-03-05T03:47:05.883Z,2.90
2019-03-05T03:48:05.864Z,3.50
2019-03-05T03:49:05.884Z,3.20
2019-03-05T03:50:05.849Z,3.50
2019-03-05T03:51:05.836Z,2.70
2019-03-05T03:52:05.838Z,2.40
2019-03-05T03:53:05.815Z,2.90
2019-03-05T03:54:05.802Z,2.90
2019-03-05T03:55:05.823Z,3.10
2019-03-05T03:56:05.832Z,2.70
2019-03-05T03:57:05.785Z,2.90
2019-03-05T03:58:05.757Z,3.20
2019-03-05T03:59:05.749Z,3.50
2019-03-05T04:00:05.764Z,3.10
2019-03-05T04:01:07.249Z,2.80
2019-03-05T04:02:05.715Z,2.50
2019-03-05T04:03:05.698Z,3.10
2019-03-05T04:04:05.692Z,2.80
2019-03-05T04:05:05.807Z,2.90
2019-03-05T04:06:05.682Z,2.70
2019-03-05T04:07:05.681Z,3.30
2019-03-05T04:08:05.655Z,3.40
2019-03-05T04:09:05.641Z,3.30
2019-03-05T04:10:05.666Z,3.20
2019-03-05T04:11:05.641Z,2.60
2019-03-05T04:12:05.624Z,2.60
2019-03-05T04:13:05.617Z,2.90
2019-03-05T04:14:05.603Z,2.70
2019-03-05T04:15:05.576Z,3.50
2019-03-05T04:16:05.584Z,2.30
2019-03-05T04:17:05.558Z,3.20
2019-03-05T04:18:05.558Z,2.60
2019-03-05T04:19:05.535Z,2.30
2019-03-05T04:20:05.517Z,3.10
2019-03-05T04:21:05.579Z,3.50
2019-03-05T04:22:05.518Z,3.20
2019-03-05T04:23:05.502Z,2.80
2019-03-05T04:24:05.499Z,3.40
2019-03-05T04:25:05.472Z,3.30
2019-03-05T04:26:05.482Z,2.50
2019-03-05T04:27:05.453Z,3.50
2019-03-05T04:28:05.441Z,2.80
2019-03-05T04:29:05.448Z,3.00
2019-03-05T04:30:05.439Z,3.30
2019-03-05T04:31:05.452Z,3.20
2019-03-05T04:32:05.403Z,3.10
2019-03-05T04:33:05.400Z,3.70
2019-03-05T04:34:05.382Z,3.00
2019-03-05T04:35:14.169Z,3.60
2019-03-05T04:36:05.375Z,3.10
2019-03-05T04:37:05.331Z,3.40
2019-03-05T04:38:05.319Z,3.50
2019-03-05T04:39:05.332Z,3.70
2019-03-05T04:40:05.309Z,3.70
2019-03-05T04:41:05.313Z,3.50
2019-03-05T04:42:05.287Z,3.70
2019-03-05T04:43:05.266Z,3.10
2019-03-05T04:44:05.259Z,3.30
2019-03-05T04:45:14.235Z,4.10
2019-03-05T04:46:13.533Z,3.10
2019-03-05T04:47:05.235Z,2.20
2019-03-05T04:48:05.222Z,3.90
2019-03-05T04:49:05.199Z,3.90
2019-03-05T04:50:05.194Z,4.30
2019-03-05T04:51:05.179Z,4.00
2019-03-05T04:52:05.190Z,3.40
2019-03-05T04:53:05.169Z,3.40
2019-03-05T04:54:05.166Z,3.80
2019-03-05T04:55:05.137Z,3.90
2019-03-05T04:56:14.267Z,3.50
2019-03-05T04:57:13.437Z,3.50
2019-03-05T04:58:05.132Z,4.60
2019-03-05T04:59:05.111Z,4.10
2019-03-05T05:00:05.084Z,4.00
2019-03-05T05:01:05.083Z,4.70
2019-03-05T05:02:05.083Z,4.50
2019-03-05T05:03:05.046Z,3.60
2019-03-05T05:04:05.047Z,4.30
2019-03-05T05:05:05.031Z,3.80
2019-03-05T05:06:05.024Z,4.70
2019-03-05T05:07:05.043Z,4.90
2019-03-05T05:08:05.011Z,4.60
2019-03-05T05:09:04.988Z,3.50
2019-03-05T05:10:04.983Z,4.70
2019-03-05T05:11:04.971Z,4.90
2019-03-05T05:12:05.109Z,3.80
2019-03-05T05:13:04.970Z,5.10
2019-03-05T05:14:04.949Z,5.00
2019-03-05T05:15:04.930Z,5.10
2019-03-05T05:16:04.923Z,5.00
2019-03-05T05:17:04.899Z,4.90
2019-03-05T05:18:04.956Z,4.80
2019-03-05T05:19:04.885Z,5.00
2019-03-05T05:20:04.870Z,5.00
2019-03-05T05:21:04.858Z,4.70
2019-03-05T05:22:04.865Z,4.10
2019-03-05T05:23:04.929Z,4.80
2019-03-05T05:24:04.822Z,4.70
2019-03-05T05:25:04.818Z,3.10
2019-03-05T05:26:04.803Z,4.50
2019-03-05T05:27:04.795Z,4.60
2019-03-05T05:28:04.837Z,4.60
2019-03-05T05:29:04.770Z,5.20
2019-03-05T05:30:04.765Z,6.10
2019-03-05T05:31:04.771Z,5.10
2019-03-05T05:32:04.739Z,5.00
2019-03-05T05:33:04.747Z,5.60
2019-03-05T05:34:04.740Z,6.10
2019-03-05T05:35:04.708Z,5.90
2019-03-05T05:36:04.703Z,5.50
2019-03-05T05:37:04.693Z,5.40
2019-03-05T05:38:04.704Z,5.90
2019-03-05T05:39:04.674Z,5.40
2019-03-05T05:40:05.004Z,5.30
2019-03-05T05:41:04.645Z,6.50
2019-03-05T05:42:04.643Z,5.90
2019-03-05T05:43:04.644Z,6.30
2019-03-05T05:44:04.618Z,5.30
2019-03-05T05:45:04.609Z,6.30
2019-03-05T05:46:04.583Z,5.50
2019-03-05T05:47:04.580Z,5.70
2019-03-05T05:48:04.591Z,6.40
2019-03-05T05:49:04.564Z,5.60
2019-03-05T05:50:04.545Z,6.40
2019-03-05T05:51:04.543Z,6.50
2019-03-05T05:52:04.531Z,7.30
2019-03-05T05:53:04.534Z,6.70
2019-03-05T05:54:04.501Z,5.30
2019-03-05T05:55:04.493Z,5.70
2019-03-05T05:56:04.498Z,6.80
2019-03-05T05:57:04.463Z,6.30
2019-03-05T05:58:04.498Z,6.10
2019-03-05T05:59:04.460Z,6.40
2019-03-05T06:00:04.434Z,7.00
2019-03-05T06:01:04.462Z,6.50
2019-03-05T06:02:13.344Z,5.40
2019-03-05T06:03:04.427Z,6.40
2019-03-05T06:04:04.429Z,6.50
2019-03-05T06:05:04.394Z,6.50
2019-03-05T06:06:04.373Z,7.50
2019-03-05T06:07:04.374Z,6.60
2019-03-05T06:08:13.381Z,5.60
2019-03-05T06:09:04.375Z,6.00
2019-03-05T06:10:04.333Z,5.60
2019-03-05T06:11:04.317Z,5.50
2019-03-05T06:12:04.320Z,6.10
2019-03-05T06:13:04.301Z,6.20
2019-03-05T06:14:04.307Z,5.90
2019-03-05T06:15:04.282Z,6.00
2019-03-05T06:16:04.300Z,7.00
2019-03-05T06:17:04.263Z,7.80
2019-03-05T06:18:04.248Z,10.70
2019-03-05T06:19:04.289Z,6.90
2019-03-05T06:20:04.253Z,13.80
2019-03-05T06:21:04.220Z,7.20
2019-03-05T06:22:04.231Z,6.90
2019-03-05T06:23:04.270Z,6.40
2019-03-05T06:24:04.200Z,6.70
2019-03-05T06:25:04.185Z,7.00
2019-03-05T06:26:04.175Z,6.70
2019-03-05T06:27:04.178Z,6.60
2019-03-05T06:28:04.137Z,6.50
2019-03-05T06:29:04.200Z,6.40
2019-03-05T06:30:04.143Z,7.00
2019-03-05T06:31:04.115Z,6.80
2019-03-05T06:32:04.132Z,6.70
2019-03-05T06:33:04.083Z,6.80
2019-03-05T06:34:04.104Z,6.80
2019-03-05T06:35:04.055Z,6.80
2019-03-05T06:36:04.046Z,6.80
2019-03-05T06:37:04.070Z,5.50
2019-03-05T06:38:04.028Z,6.70
2019-03-05T06:39:04.066Z,6.50
2019-03-05T06:40:04.009Z,6.10
2019-03-05T06:41:04.078Z,6.60
2019-03-05T06:42:03.983Z,6.50
2019-03-05T06:43:03.976Z,6.80
2019-03-05T06:44:03.979Z,7.00
2019-03-05T06:45:03.964Z,7.40
2019-03-05T06:46:03.942Z,6.70
2019-03-05T06:47:03.932Z,6.80
2019-03-05T06:48:03.935Z,6.80
2019-03-05T06:49:03.960Z,7.10
2019-03-05T06:50:03.918Z,6.50
2019-03-05T06:51:03.890Z,6.70
2019-03-05T06:52:04.140Z,5.70
2019-03-05T06:53:03.873Z,7.30
2019-03-05T06:54:03.862Z,6.30
2019-03-05T06:55:04.847Z,6.60
2019-03-05T06:56:03.865Z,6.40
2019-03-05T06:57:03.822Z,6.70
2019-03-05T06:58:03.815Z,6.00
2019-03-05T06:59:03.904Z,6.30
2019-03-05T07:00:03.825Z,6.50
2019-03-05T07:01:03.806Z,6.60
2019-03-05T07:02:03.798Z,6.50
2019-03-05T07:03:03.763Z,5.90
2019-03-05T07:04:03.745Z,6.30
2019-03-05T07:05:03.770Z,6.10
2019-03-05T07:06:03.746Z,6.40
2019-03-05T07:07:03.744Z,6.30
2019-03-05T07:08:03.698Z,6.70
2019-03-05T07:09:03.690Z,6.40
2019-03-05T07:10:03.712Z,6.30
2019-03-05T07:11:03.676Z,6.40
2019-03-05T07:12:03.826Z,6.00
2019-03-05T07:13:03.684Z,6.20
2019-03-05T07:14:03.644Z,6.70
2019-03-05T07:15:03.644Z,6.00
2019-03-05T07:16:03.700Z,6.10
2019-03-05T07:17:03.612Z,5.20
2019-03-05T07:18:03.609Z,4.10
2019-03-05T07:19:03.613Z,5.70
2019-03-05T07:20:03.634Z,5.60
2019-03-05T07:21:03.576Z,5.70
2019-03-05T07:22:03.644Z,5.30
2019-03-05T07:23:03.547Z,4.80
2019-03-05T07:24:03.549Z,5.70
2019-03-05T07:25:03.558Z,5.90
2019-03-05T07:26:03.513Z,5.80
2019-03-05T07:27:03.504Z,5.60
2019-03-05T07:28:03.500Z,6.90
2019-03-05T07:29:03.488Z,5.60
2019-03-05T07:30:03.504Z,5.10
2019-03-05T07:31:03.499Z,6.60
2019-03-05T07:32:03.454Z,6.20
2019-03-05T07:33:03.437Z,6.10
2019-03-05T07:34:03.429Z,12.80
2019-03-05T07:35:03.438Z,5.40
2019-03-05T07:36:03.432Z,5.00
2019-03-05T07:37:03.401Z,4.70
2019-03-05T07:38:03.386Z,5.20
2019-03-05T07:39:03.370Z,5.70
2019-03-05T07:40:03.374Z,5.20
2019-03-05T07:41:03.381Z,5.90
2019-03-05T07:42:03.389Z,5.30
2019-03-05T07:43:03.351Z,5.70
2019-03-05T07:44:03.326Z,5.30
2019-03-05T07:45:03.319Z,5.50
2019-03-05T07:46:03.326Z,5.50
2019-03-05T07:47:03.298Z,5.10
2019-03-05T07:48:03.310Z,5.70
2019-03-05T07:49:03.271Z,5.30
2019-03-05T07:50:03.259Z,4.90
2019-03-05T07:51:03.266Z,6.10
2019-03-05T07:52:03.234Z,5.60
2019-03-05T07:53:03.258Z,5.10
2019-03-05T07:54:03.243Z,6.00
2019-03-05T07:55:13.267Z,6.30
2019-03-05T07:56:04.232Z,4.60
2019-03-05T07:57:03.183Z,5.10
2019-03-05T07:58:03.175Z,5.10
2019-03-05T07:59:03.176Z,5.50
2019-03-05T08:00:05.387Z,5.00
2019-03-05T08:01:03.178Z,5.40
2019-03-05T08:02:03.125Z,5.80
2019-03-05T08:03:03.113Z,4.90
2019-03-05T08:04:03.111Z,4.00
2019-03-05T08:05:03.116Z,5.50
2019-03-05T08:06:03.117Z,6.60
2019-03-05T08:07:03.079Z,5.20
2019-03-05T08:08:03.080Z,5.80
2019-03-05T08:09:03.052Z,5.50
2019-03-05T08:10:03.052Z,5.80
2019-03-05T08:11:03.056Z,5.80
2019-03-05T08:12:03.013Z,6.20
2019-03-05T08:13:03.008Z,5.90
2019-03-05T08:14:02.988Z,5.80
2019-03-05T08:15:02.996Z,5.00
2019-03-05T08:16:02.997Z,5.30
2019-03-05T08:17:02.978Z,5.70
2019-03-05T08:18:02.980Z,5.20
2019-03-05T08:19:02.950Z,10.50
2019-03-05T08:20:02.928Z,13.20
2019-03-05T08:21:03.023Z,8.10
2019-03-05T08:22:02.919Z,7.00
2019-03-05T08:23:02.940Z,8.50
2019-03-05T08:24:02.886Z,6.00
2019-03-05T08:25:02.880Z,5.10
2019-03-05T08:26:02.856Z,5.30
2019-03-05T08:27:02.875Z,5.20
2019-03-05T08:28:02.866Z,5.30
2019-03-05T08:29:03.216Z,5.00
2019-03-05T08:30:13.443Z,4.90
2019-03-05T08:31:03.815Z,5.70
2019-03-05T08:32:02.839Z,5.00
2019-03-05T08:33:02.828Z,4.10
2019-03-05T08:34:02.788Z,4.50
2019-03-05T08:35:02.807Z,4.60
2019-03-05T08:36:02.762Z,4.40
2019-03-05T08:37:02.841Z,5.60
2019-03-05T08:38:02.780Z,4.60
2019-03-05T08:39:02.735Z,5.00
2019-03-05T08:40:02.744Z,5.00
2019-03-05T08:41:02.712Z,5.40
2019-03-05T08:42:02.759Z,4.10
2019-03-05T08:43:02.675Z,3.80
2019-03-05T08:44:02.691Z,4.50
2019-03-05T08:45:02.694Z,4.60
2019-03-05T08:46:02.699Z,5.10
2019-03-05T08:47:02.673Z,4.90
2019-03-05T08:48:02.670Z,4.20
2019-03-05T08:49:02.619Z,5.00
2019-03-05T08:50:02.619Z,4.30
2019-03-05T08:51:02.627Z,4.30
2019-03-05T08:52:02.606Z,4.80
2019-03-05T08:53:02.627Z,3.60
2019-03-05T08:54:02.567Z,3.30
2019-03-05T08:55:02.557Z,4.40
2019-03-05T08:56:02.534Z,4.20
2019-03-05T08:57:02.570Z,4.50
2019-03-05T08:58:02.518Z,4.30
2019-03-05T08:59:02.514Z,4.10
2019-03-05T09:00:02.500Z,4.30
2019-03-05T09:01:02.509Z,5.10
2019-03-05T09:02:02.497Z,4.50
2019-03-05T09:03:02.467Z,4.30
2019-03-05T09:04:02.465Z,4.30
2019-03-05T09:05:02.494Z,3.30
2019-03-05T09:06:02.433Z,3.80
2019-03-05T09:07:02.452Z,3.40
2019-03-05T09:08:02.416Z,3.80
2019-03-05T09:09:02.541Z,3.80
2019-03-05T09:10:02.397Z,3.70
2019-03-05T09:11:02.378Z,3.40
2019-03-05T09:12:02.372Z,3.60
2019-03-05T09:13:02.376Z,3.40
2019-03-05T09:14:02.519Z,3.50
2019-03-05T09:15:02.346Z,3.60
2019-03-05T09:16:02.321Z,3.30
2019-03-05T09:17:02.314Z,3.60
2019-03-05T09:18:02.422Z,3.70
2019-03-05T09:19:02.295Z,3.90
2019-03-05T09:20:02.313Z,2.70
2019-03-05T09:21:02.295Z,3.30
2019-03-05T09:22:02.254Z,4.10
2019-03-05T09:23:02.269Z,3.40
2019-03-05T09:24:02.245Z,3.50
2019-03-05T09:25:02.244Z,3.30
2019-03-05T09:26:02.225Z,4.40
2019-03-05T09:27:02.223Z,3.40
2019-03-05T09:28:02.238Z,3.20
2019-03-05T09:29:02.245Z,3.30
2019-03-05T09:30:02.183Z,3.70
2019-03-05T09:31:02.161Z,2.90
2019-03-05T09:32:02.153Z,3.00
2019-03-05T09:33:02.183Z,4.00
2019-03-05T09:34:02.134Z,3.60
2019-03-05T09:35:02.125Z,3.50
2019-03-05T09:36:02.117Z,3.20
2019-03-05T09:37:02.091Z,4.00
2019-03-05T09:38:02.102Z,4.40
2019-03-05T09:39:03.178Z,3.40
2019-03-05T09:40:02.065Z,3.30
2019-03-05T09:41:02.055Z,3.30
2019-03-05T09:42:02.044Z,7.10
2019-03-05T09:43:02.035Z,8.00
2019-03-05T09:44:02.136Z,2.60
2019-03-05T09:45:02.019Z,2.90
2019-03-05T09:46:02.002Z,3.70
2019-03-05T09:47:01.999Z,2.50
2019-03-05T09:48:01.976Z,3.80
2019-03-05T09:49:01.989Z,3.70
2019-03-05T09:50:01.959Z,3.10
2019-03-05T09:51:01.945Z,3.70
2019-03-05T09:52:01.948Z,3.90
2019-03-05T09:53:01.919Z,3.20
2019-03-05T09:54:01.934Z,3.90
2019-03-05T09:55:01.905Z,4.60
2019-03-05T09:56:01.906Z,3.80
2019-03-05T09:57:01.879Z,4.00
2019-03-05T09:58:07.879Z,3.70
2019-03-05T09:59:02.882Z,4.30
2019-03-05T10:00:01.845Z,3.00
2019-03-05T10:01:01.836Z,3.40
2019-03-05T10:02:01.831Z,3.00
2019-03-05T10:03:01.815Z,4.50
2019-03-05T10:04:01.843Z,3.60
2019-03-05T10:05:01.848Z,4.00
2019-03-05T10:06:01.791Z,3.50
2019-03-05T10:07:01.780Z,4.30
2019-03-05T10:08:01.759Z,4.30
2019-03-05T10:09:01.754Z,4.60
2019-03-05T10:10:01.753Z,4.40
2019-03-05T10:11:01.725Z,4.30
2019-03-05T10:12:01.765Z,4.40
2019-03-05T10:13:04.372Z,4.40
2019-03-05T10:14:01.689Z,3.80
2019-03-05T10:15:01.701Z,4.20
2019-03-05T10:16:01.687Z,3.90
2019-03-05T10:17:01.659Z,4.10
2019-03-05T10:18:12.212Z,4.30
2019-03-05T10:19:04.475Z,4.50
2019-03-05T10:20:01.671Z,3.80
2019-03-05T10:21:01.620Z,4.20
2019-03-05T10:22:01.600Z,4.10
2019-03-05T10:23:01.597Z,4.50
2019-03-05T10:24:10.009Z,5.20
2019-03-05T10:25:05.973Z,5.30
2019-03-05T10:26:01.559Z,5.20
2019-03-05T10:27:01.547Z,6.20
2019-03-05T10:28:01.538Z,7.00
2019-03-05T10:29:01.643Z,5.00
2019-03-05T10:30:01.538Z,4.10
2019-03-05T10:31:01.535Z,4.10
2019-03-05T10:32:01.509Z,4.80
2019-03-05T10:33:01.485Z,3.50
2019-03-05T10:34:01.483Z,3.70
2019-03-05T10:35:01.470Z,4.50
2019-03-05T10:36:01.477Z,4.10
2019-03-05T10:37:12.131Z,3.40
2019-03-05T10:38:02.427Z,10.80
2019-03-05T10:39:01.421Z,10.80
2019-03-05T10:40:01.419Z,4.40
2019-03-05T10:41:01.453Z,5.40
2019-03-05T10:42:01.395Z,6.40
2019-03-05T10:43:08.535Z,7.70
2019-03-05T10:44:02.360Z,7.50
2019-03-05T10:45:01.374Z,5.50
2019-03-05T10:46:01.366Z,4.60
2019-03-05T10:47:01.353Z,4.00
2019-03-05T10:48:01.331Z,3.40
2019-03-05T10:49:01.340Z,3.80
2019-03-05T10:50:01.297Z,3.60
2019-03-05T10:51:01.307Z,4.20
2019-03-05T10:52:01.277Z,3.90
2019-03-05T10:53:01.269Z,3.60
2019-03-05T10:54:02.219Z,3.70
2019-03-05T10:55:01.255Z,3.60
2019-03-05T10:56:01.278Z,4.00
2019-03-05T10:57:01.285Z,3.70
2019-03-05T10:58:01.212Z,4.00
2019-03-05T10:59:01.210Z,2.80
2019-03-05T11:00:01.213Z,3.60
2019-03-05T11:01:01.192Z,4.00
2019-03-05T11:02:01.252Z,3.20
2019-03-05T11:03:01.166Z,4.90
2019-03-05T11:04:01.154Z,3.60
2019-03-05T11:05:01.145Z,3.60
2019-03-05T11:06:01.137Z,3.70
2019-03-05T11:07:01.143Z,3.80
2019-03-05T11:08:01.116Z,2.80
2019-03-05T11:09:01.091Z,4.00
2019-03-05T11:10:01.094Z,3.50
2019-03-05T11:11:01.085Z,4.40
2019-03-05T11:12:01.099Z,3.80
2019-03-05T11:13:01.104Z,3.80
2019-03-05T11:14:01.043Z,3.70
2019-03-05T11:15:01.062Z,3.80
2019-03-05T11:16:01.027Z,3.10
2019-03-05T11:17:01.029Z,3.30
2019-03-05T11:18:01.022Z,3.80
2019-03-05T11:19:00.980Z,3.60
2019-03-05T11:20:00.986Z,4.00
2019-03-05T11:21:00.993Z,3.50
2019-03-05T11:22:00.983Z,3.10
2019-03-05T11:23:00.967Z,3.30
2019-03-05T11:24:00.971Z,3.20
2019-03-05T11:25:00.916Z,3.50
2019-03-05T11:26:00.912Z,3.70
2019-03-05T11:27:00.919Z,3.30
2019-03-05T11:28:00.927Z,3.40
2019-03-05T11:29:00.901Z,3.50
2019-03-05T11:30:00.878Z,3.20
2019-03-05T11:31:00.854Z,3.70
2019-03-05T11:32:00.853Z,4.70
2019-03-05T11:33:00.837Z,3.30
2019-03-05T11:34:00.873Z,3.40
2019-03-05T11:35:00.841Z,3.60
2019-03-05T11:36:00.793Z,4.00
2019-03-05T11:37:00.798Z,3.90
2019-03-05T11:38:00.778Z,3.70
2019-03-05T11:39:00.789Z,3.50
2019-03-05T11:40:00.769Z,4.00
2019-03-05T11:41:00.755Z,4.00
2019-03-05T11:42:00.733Z,3.00
2019-03-05T11:43:00.731Z,2.90
2019-03-05T11:44:00.734Z,3.30
2019-03-05T11:45:07.644Z,3.30
2019-03-05T11:46:01.723Z,2.50
2019-03-05T11:47:00.726Z,3.60
2019-03-05T11:48:00.673Z,3.30
2019-03-05T11:49:00.772Z,3.50
2019-03-05T11:50:00.714Z,3.00
2019-03-05T11:51:00.651Z,3.20
2019-03-05T11:52:00.659Z,3.50
2019-03-05T11:53:00.633Z,3.90
2019-03-05T11:54:00.620Z,3.50
2019-03-05T11:55:00.625Z,4.20
2019-03-05T11:56:00.613Z,3.80
2019-03-05T11:57:01.575Z,3.40
2019-03-05T11:58:00.579Z,3.90
2019-03-05T11:59:00.559Z,3.30
2019-03-05T12:00:00.589Z,3.60
2019-03-05T12:01:00.535Z,4.80
2019-03-05T12:02:00.524Z,5.50
2019-03-05T12:03:00.522Z,4.20
2019-03-05T12:04:00.514Z,3.50
2019-03-05T12:05:00.526Z,3.20
2019-03-05T12:06:00.504Z,2.90
2019-03-05T12:07:00.471Z,3.70
2019-03-05T12:08:00.464Z,3.60
2019-03-05T12:09:00.465Z,3.70
2019-03-05T12:10:00.439Z,3.60
2019-03-05T12:11:00.445Z,3.60
2019-03-05T12:12:00.409Z,3.50
2019-03-05T12:13:00.403Z,3.70
2019-03-05T12:14:00.401Z,3.20
2019-03-05T12:15:00.412Z,4.10
2019-03-05T12:16:00.393Z,3.50
2019-03-05T12:17:00.357Z,3.40
2019-03-05T12:18:00.487Z,3.50
2019-03-05T12:19:00.342Z,3.10
2019-03-05T12:20:00.378Z,3.40
2019-03-05T12:21:00.397Z,2.80
2019-03-05T12:22:00.311Z,2.90
2019-03-05T12:23:02.229Z,3.40
2019-03-05T12:24:00.361Z,3.20
2019-03-05T12:25:01.906Z,3.00
2019-03-05T12:26:00.286Z,3.10
2019-03-05T12:27:00.267Z,3.40
2019-03-05T12:28:09.657Z,2.90
2019-03-05T12:29:01.219Z,2.90
2019-03-05T12:30:00.435Z,5.50
2019-03-05T12:31:00.253Z,7.10
2019-03-05T12:32:00.216Z,7.90
2019-03-05T12:33:00.173Z,6.30
2019-03-05T12:34:00.170Z,5.30
2019-03-05T12:35:00.293Z,4.40
2019-03-05T12:36:00.170Z,3.70
2019-03-05T12:37:00.144Z,3.40
2019-03-05T12:38:00.158Z,3.10
2019-03-05T12:39:00.130Z,3.40
2019-03-05T12:40:00.196Z,5.30
2019-03-05T12:41:00.108Z,4.50
2019-03-05T12:42:00.085Z,8.00
2019-03-05T12:43:00.088Z,6.70
2019-03-05T12:44:00.088Z,3.30
2019-03-05T12:45:00.062Z,3.20
2019-03-05T12:46:00.078Z,5.60
2019-03-05T12:47:00.035Z,3.30
2019-03-05T12:48:00.086Z,3.60
2019-03-05T12:49:00.019Z,3.20
2019-03-05T12:49:59.997Z,3.40
2019-03-05T12:51:00.000Z,3.60
2019-03-05T12:52:00.041Z,3.50
2019-03-05T12:52:59.959Z,3.40
2019-03-05T12:53:59.961Z,3.90
2019-03-05T12:54:59.958Z,4.70
2019-03-05T12:55:59.929Z,5.10
2019-03-05T12:56:59.971Z,4.30
2019-03-05T12:57:59.928Z,3.30
2019-03-05T12:58:59.896Z,3.70
2019-03-05T12:59:59.888Z,4.10
2019-03-05T13:00:59.901Z,2.70
2019-03-05T13:01:59.906Z,3.60
2019-03-05T13:02:59.917Z,4.50
2019-03-05T13:03:59.851Z,4.30
2019-03-05T13:04:59.841Z,4.30
2019-03-05T13:05:59.835Z,3.10
2019-03-05T13:06:59.875Z,4.60
2019-03-05T13:07:59.798Z,4.80
2019-03-05T13:08:59.791Z,5.50
2019-03-05T13:10:02.138Z,4.80
2019-03-05T13:10:59.772Z,5.50
2019-03-05T13:11:59.783Z,5.10
2019-03-05T13:12:59.787Z,7.90
2019-03-05T13:14:07.257Z,7.20
2019-03-05T13:15:00.728Z,8.30
2019-03-05T13:15:59.713Z,9.30
2019-03-05T13:16:59.801Z,7.00
2019-03-05T13:17:59.713Z,6.00